createdAt,value
2023-04-09T00:00:02.519Z,98293.48
2023-04-09T00:03:00.473Z,98292.40
2023-04-09T00:05:28.749Z,98292.30
2023-04-09T00:07:57.351Z,98296.69
2023-04-09T00:10:25.466Z,98298.17
2023-04-09T00:12:53.599Z,98297.14
2023-04-09T00:15:30.753Z,98294.48
2023-04-09T00:18:00.568Z,98298.08
2023-04-09T00:20:28.797Z,98299.92
2023-04-09T00:22:58.274Z,98303.92
2023-04-09T00:25:26.518Z,98302.62
2023-04-09T00:27:59.240Z,98304.94
2023-04-09T00:30:31.165Z,98304.59
2023-04-09T00:32:59.329Z,98303.36
2023-04-09T00:35:27.603Z,98303.64
2023-04-09T00:37:56.122Z,98303.69
2023-04-09T00:40:24.308Z,98300.86
2023-04-09T00:42:52.567Z,98300.58
2023-04-09T00:45:20.779Z,98298.71
2023-04-09T00:47:49.050Z,98300.34
2023-04-09T00:50:17.272Z,98298.79
2023-04-09T00:52:45.989Z,98298.66
2023-04-09T00:55:14.218Z,98299.62
2023-04-09T00:57:42.597Z,98301.16
2023-04-09T01:00:13.196Z,98299.46
2023-04-09T01:02:42.060Z,98300.73
2023-04-09T01:05:12.915Z,98302.40
2023-04-09T01:08:16.973Z,98299.47
2023-04-09T01:11:03.016Z,98296.23
2023-04-09T01:13:48.127Z,98296.49
2023-04-09T01:16:20.237Z,98296.51
2023-04-09T01:19:12.031Z,98293.83
2023-04-09T01:21:42.234Z,98298.66
2023-04-09T01:24:29.830Z,98301.37
2023-04-09T01:27:01.697Z,98301.65
2023-04-09T01:29:45.757Z,98302.92
2023-04-09T01:32:18.846Z,98300.56
2023-04-09T01:34:48.452Z,98299.48
2023-04-09T01:37:18.323Z,98303.04
2023-04-09T01:39:47.364Z,98300.53
2023-04-09T01:42:16.411Z,98299.91
2023-04-09T01:44:46.550Z,98299.76
2023-04-09T01:47:14.861Z,98300.09
2023-04-09T01:49:43.880Z,98295.82
2023-04-09T01:52:12.639Z,98296.11
2023-04-09T01:54:42.568Z,98297.71
2023-04-09T01:57:10.804Z,98296.48
2023-04-09T01:59:38.930Z,98293.05
2023-04-09T02:02:12.535Z,98291.59
2023-04-09T02:04:46.158Z,98291.71
2023-04-09T02:07:31.032Z,98293.72
2023-04-09T02:10:01.544Z,98295.91
2023-04-09T02:12:32.109Z,98298.31
2023-04-09T02:15:02.403Z,98300.77
2023-04-09T02:17:30.638Z,98300.53
2023-04-09T02:19:58.907Z,98302.25
2023-04-09T02:22:26.994Z,98299.33
2023-04-09T02:24:55.216Z,98299.22
2023-04-09T02:27:23.314Z,98296.10
2023-04-09T02:29:51.411Z,98296.45
2023-04-09T02:32:20.236Z,98293.73
2023-04-09T02:34:48.692Z,98292.65
2023-04-09T02:37:18.376Z,98292.69
2023-04-09T02:39:48.695Z,98292.58
2023-04-09T02:42:16.849Z,98289.83
2023-04-09T02:44:44.939Z,98290.55
2023-04-09T02:47:13.715Z,98286.09
2023-04-09T02:49:41.926Z,98286.45
2023-04-09T02:52:11.496Z,98288.86
2023-04-09T02:54:39.723Z,98287.94
2023-04-09T02:57:07.953Z,98285.93
2023-04-09T02:59:36.264Z,98283.61
2023-04-09T03:02:04.690Z,98286.38
2023-04-09T03:04:33.108Z,98287.17
2023-04-09T03:07:02.109Z,98285.09
2023-04-09T03:09:30.871Z,98288.67
2023-04-09T03:11:58.984Z,98288.30
2023-04-09T03:14:27.070Z,98289.24
2023-04-09T03:16:55.785Z,98291.20
2023-04-09T03:19:23.970Z,98288.86
2023-04-09T03:21:52.225Z,98290.61
2023-04-09T03:24:23.146Z,98287.70
2023-04-09T03:26:52.005Z,98289.34
2023-04-09T03:29:20.280Z,98288.44
2023-04-09T03:31:48.712Z,98289.52
2023-04-09T03:34:16.935Z,98293.16
2023-04-09T03:36:46.101Z,98292.42
2023-04-09T03:39:24.292Z,98292.84
2023-04-09T03:41:53.263Z,98296.16
2023-04-09T03:44:21.639Z,98294.14
2023-04-09T03:47:08.750Z,98297.91
2023-04-09T03:49:37.327Z,98303.93
2023-04-09T03:52:12.591Z,98301.50
2023-04-09T03:54:44.456Z,98302.25
2023-04-09T03:57:16.513Z,98304.88
2023-04-09T03:59:45.582Z,98305.75
2023-04-09T04:02:14.563Z,98308.40
2023-04-09T04:04:46.433Z,98313.41
2023-04-09T04:07:14.785Z,98316.84
2023-04-09T04:09:49.966Z,98319.73
2023-04-09T04:12:19.780Z,98321.61
2023-04-09T04:14:56.005Z,98322.08
2023-04-09T04:17:33.035Z,98321.40
2023-04-09T04:20:01.693Z,98322.36
2023-04-09T04:22:30.902Z,98324.25
2023-04-09T04:25:00.050Z,98327.16
2023-04-09T04:27:28.248Z,98330.31
2023-04-09T04:29:58.915Z,98334.83
2023-04-09T04:32:53.277Z,98338.04
2023-04-09T04:35:22.203Z,98339.20
2023-04-09T04:37:52.650Z,98342.44
2023-04-09T04:40:21.388Z,98339.88
2023-04-09T04:42:52.650Z,98340.27
2023-04-09T04:45:20.976Z,98338.45
2023-04-09T04:47:54.442Z,98339.13
2023-04-09T04:50:22.639Z,98337.75
2023-04-09T04:53:03.554Z,98341.84
2023-04-09T04:55:39.739Z,98339.89
2023-04-09T04:58:08.633Z,98338.16
2023-04-09T05:00:44.021Z,98334.52
2023-04-09T05:03:13.118Z,98332.98
2023-04-09T05:05:54.946Z,98335.70
2023-04-09T05:08:23.774Z,98336.46
2023-04-09T05:10:56.264Z,98338.41
2023-04-09T05:13:27.617Z,98341.01
2023-04-09T05:15:56.472Z,98345.52
2023-04-09T05:18:25.170Z,98349.16
2023-04-09T05:20:53.292Z,98346.58
2023-04-09T05:23:21.843Z,98347.92
2023-04-09T05:25:51.126Z,98349.00
2023-04-09T05:28:57.556Z,98355.21
2023-04-09T05:31:26.765Z,98353.92
2023-04-09T05:33:58.458Z,98354.25
2023-04-09T05:36:37.299Z,98357.59
2023-04-09T05:39:05.586Z,98356.11
2023-04-09T05:41:33.814Z,98358.30
2023-04-09T05:44:16.531Z,98360.40
2023-04-09T05:46:47.354Z,98364.02
2023-04-09T05:49:17.913Z,98369.48
2023-04-09T05:51:47.325Z,98369.14
2023-04-09T05:54:18.140Z,98373.45
2023-04-09T05:56:46.362Z,98377.46
2023-04-09T05:59:14.650Z,98374.57
2023-04-09T06:01:42.937Z,98381.23
2023-04-09T06:04:11.359Z,98380.19
2023-04-09T06:06:40.202Z,98383.17
2023-04-09T06:09:08.378Z,98387.61
2023-04-09T06:11:38.933Z,98392.02
2023-04-09T06:14:07.190Z,98392.78
2023-04-09T06:16:36.206Z,98398.38
2023-04-09T06:19:04.404Z,98401.45
2023-04-09T06:21:33.432Z,98407.41
2023-04-09T06:24:01.874Z,98405.59
2023-04-09T06:26:30.031Z,98408.65
2023-04-09T06:28:58.130Z,98406.05
2023-04-09T06:31:26.562Z,98406.09
2023-04-09T06:33:55.404Z,98409.27
2023-04-09T06:36:23.793Z,98407.93
2023-04-09T06:38:51.848Z,98409.99
2023-04-09T06:41:23.882Z,98411.69
2023-04-09T06:43:52.745Z,98415.61
2023-04-09T06:46:21.707Z,98420.07
2023-04-09T06:48:51.901Z,98415.98
2023-04-09T06:51:20.066Z,98417.30
2023-04-09T06:53:48.515Z,98415.76
2023-04-09T06:56:16.879Z,98413.78
2023-04-09T06:58:45.136Z,98414.77
2023-04-09T07:01:13.492Z,98414.86
2023-04-09T07:03:43.811Z,98412.34
2023-04-09T07:06:12.083Z,98413.28
2023-04-09T07:08:40.146Z,98414.92
2023-04-09T07:11:08.630Z,98411.05
2023-04-09T07:13:36.849Z,98411.64
2023-04-09T07:16:05.315Z,98410.07
2023-04-09T07:18:33.450Z,98406.04
2023-04-09T07:21:02.160Z,98400.19
2023-04-09T07:23:36.390Z,98400.25
2023-04-09T07:26:05.533Z,98402.54
2023-04-09T07:28:35.002Z,98401.87
2023-04-09T07:31:05.584Z,98404.59
2023-04-09T07:33:34.015Z,98407.45
2023-04-09T07:36:02.543Z,98404.52
2023-04-09T07:38:30.814Z,98406.30
2023-04-09T07:40:59.178Z,98406.63
2023-04-09T07:43:27.486Z,98400.57
2023-04-09T07:45:56.044Z,98403.60
2023-04-09T07:48:24.247Z,98407.60
2023-04-09T07:50:52.918Z,98407.79
2023-04-09T07:53:21.466Z,98402.40
2023-04-09T07:55:51.948Z,98400.12
2023-04-09T07:58:20.112Z,98396.94
2023-04-09T08:00:48.673Z,98404.50
2023-04-09T08:03:17.797Z,98402.95
2023-04-09T08:05:46.861Z,98407.72
2023-04-09T08:08:15.081Z,98414.07
2023-04-09T08:10:43.324Z,98415.27
2023-04-09T08:13:12.120Z,98416.05
2023-04-09T08:15:40.668Z,98413.39
2023-04-09T08:18:09.470Z,98407.17
2023-04-09T08:20:37.975Z,98401.55
2023-04-09T08:23:06.132Z,98400.77
2023-04-09T08:25:34.348Z,98402.24
2023-04-09T08:28:02.491Z,98403.48
2023-04-09T08:30:30.761Z,98404.60
2023-04-09T08:32:59.145Z,98401.61
2023-04-09T08:35:28.596Z,98403.32
2023-04-09T08:37:56.977Z,98404.59
2023-04-09T08:40:25.400Z,98403.77
2023-04-09T08:42:58.322Z,98406.68
2023-04-09T08:45:26.479Z,98406.52
2023-04-09T08:47:54.816Z,98406.84
2023-04-09T08:50:23.131Z,98399.09
2023-04-09T08:52:51.297Z,98398.00
2023-04-09T08:55:19.552Z,98397.27
2023-04-09T08:57:47.848Z,98392.84
2023-04-09T09:00:15.957Z,98391.76
2023-04-09T09:03:04.816Z,98390.70
2023-04-09T09:05:41.436Z,98386.70
2023-04-09T09:08:12.055Z,98382.99
2023-04-09T09:10:45.669Z,98379.44
2023-04-09T09:13:27.617Z,98379.29
2023-04-09T09:16:12.970Z,98378.09
2023-04-09T09:18:43.314Z,98380.42
2023-04-09T09:21:16.582Z,98383.31
2023-04-09T09:23:46.145Z,98379.24
2023-04-09T09:26:18.640Z,98379.55
2023-04-09T09:28:48.403Z,98379.65
2023-04-09T09:31:18.921Z,98374.86
2023-04-09T09:33:48.484Z,98376.16
2023-04-09T09:36:31.803Z,98375.63
2023-04-09T09:39:10.192Z,98379.52
2023-04-09T09:41:40.027Z,98375.45
2023-04-09T09:44:10.464Z,98372.42
2023-04-09T09:46:41.468Z,98366.62
2023-04-09T09:49:10.069Z,98358.82
2023-04-09T09:51:40.873Z,98361.49
2023-04-09T09:54:10.835Z,98358.52
2023-04-09T09:56:39.831Z,98357.52
2023-04-09T09:59:22.102Z,98356.23
2023-04-09T10:02:03.821Z,98350.83
2023-04-09T10:04:38.449Z,98352.20
2023-04-09T10:07:08.381Z,98351.54
2023-04-09T10:09:38.595Z,98348.98
2023-04-09T10:12:09.067Z,98344.86
2023-04-09T10:14:38.342Z,98344.20
2023-04-09T10:17:06.931Z,98342.19
2023-04-09T10:19:41.604Z,98342.19
2023-04-09T10:22:17.143Z,98340.05
2023-04-09T10:24:47.296Z,98337.60
2023-04-09T10:27:17.484Z,98333.56
2023-04-09T10:29:47.660Z,98333.46
2023-04-09T10:32:21.793Z,98333.45
2023-04-09T10:34:50.869Z,98334.24
2023-04-09T10:37:25.268Z,98337.39
2023-04-09T10:39:53.938Z,98329.81
2023-04-09T10:42:40.793Z,98327.46
2023-04-09T10:45:14.678Z,98329.67
2023-04-09T10:47:44.251Z,98333.43
2023-04-09T10:50:25.815Z,98330.72
2023-04-09T10:52:59.764Z,98323.27
2023-04-09T10:55:42.567Z,98325.34
2023-04-09T10:58:13.548Z,98322.16
2023-04-09T11:00:43.992Z,98320.45
2023-04-09T11:03:24.031Z,98317.81
2023-04-09T11:06:06.235Z,98314.30
2023-04-09T11:08:35.524Z,98316.93
2023-04-09T11:11:04.179Z,98316.85
2023-04-09T11:13:34.193Z,98315.41
2023-04-09T11:16:07.153Z,98318.06
2023-04-09T11:18:37.213Z,98314.52
2023-04-09T11:21:05.960Z,98311.45
2023-04-09T11:23:34.629Z,98306.05
2023-04-09T11:26:02.918Z,98309.39
2023-04-09T11:28:31.182Z,98311.35
2023-04-09T11:30:59.445Z,98308.80
2023-04-09T11:33:34.393Z,98311.70
2023-04-09T11:36:06.129Z,98309.00
2023-04-09T11:38:34.417Z,98307.61
2023-04-09T11:41:02.457Z,98306.79
2023-04-09T11:43:30.886Z,98305.06
2023-04-09T11:45:59.656Z,98306.07
2023-04-09T11:48:28.015Z,98306.98
2023-04-09T11:50:57.373Z,98304.71
2023-04-09T11:53:31.304Z,98307.08
2023-04-09T11:55:59.738Z,98311.73
2023-04-09T11:58:28.350Z,98311.05
2023-04-09T12:00:59.295Z,98307.96
2023-04-09T12:03:35.000Z,98308.91
2023-04-09T12:06:05.794Z,98311.23
2023-04-09T12:08:37.626Z,98315.27
2023-04-09T12:11:13.599Z,98314.16
2023-04-09T12:13:44.937Z,98311.64
2023-04-09T12:16:14.002Z,98309.61
2023-04-09T12:18:42.407Z,98309.16
2023-04-09T12:21:10.901Z,98308.66
2023-04-09T12:23:39.042Z,98303.16
2023-04-09T12:26:07.219Z,98301.38
2023-04-09T12:28:35.544Z,98299.31
2023-04-09T12:31:03.811Z,98297.27
2023-04-09T12:33:32.579Z,98295.44
2023-04-09T12:36:00.893Z,98294.48
2023-04-09T12:38:29.080Z,98294.21
2023-04-09T12:40:57.312Z,98291.77
2023-04-09T12:43:25.478Z,98289.58
2023-04-09T12:45:53.597Z,98290.26
2023-04-09T12:48:21.807Z,98287.30
2023-04-09T12:50:49.947Z,98289.40
2023-04-09T12:53:18.532Z,98287.55
2023-04-09T12:55:47.241Z,98288.34
2023-04-09T12:58:15.518Z,98286.45
2023-04-09T13:00:43.807Z,98284.71
2023-04-09T13:03:12.312Z,98286.52
2023-04-09T13:05:40.724Z,98281.80
2023-04-09T13:08:08.927Z,98276.88
2023-04-09T13:10:37.022Z,98274.33
2023-04-09T13:13:06.279Z,98276.46
2023-04-09T13:15:34.544Z,98274.07
2023-04-09T13:18:03.300Z,98273.73
2023-04-09T13:20:31.793Z,98273.59
2023-04-09T13:22:59.920Z,98270.58
2023-04-09T13:25:28.200Z,98274.45
2023-04-09T13:27:56.398Z,98275.42
2023-04-09T13:30:24.674Z,98276.14
2023-04-09T13:32:53.004Z,98268.70
2023-04-09T13:35:21.216Z,98271.58
2023-04-09T13:37:49.378Z,98270.84
2023-04-09T13:40:17.848Z,98269.27
2023-04-09T13:42:46.030Z,98265.98
2023-04-09T13:45:14.182Z,98263.80
2023-04-09T13:47:43.213Z,98262.55
2023-04-09T13:50:13.257Z,98260.52
2023-04-09T13:52:41.422Z,98259.77
2023-04-09T13:55:09.844Z,98259.12
2023-04-09T13:57:38.034Z,98256.30
2023-04-09T14:00:08.239Z,98252.49
2023-04-09T14:02:36.496Z,98251.07
2023-04-09T14:05:05.090Z,98253.80
2023-04-09T14:07:33.328Z,98251.36
2023-04-09T14:10:02.386Z,98250.32
2023-04-09T14:12:30.568Z,98246.92
2023-04-09T14:14:58.702Z,98249.04
2023-04-09T14:17:26.894Z,98245.62
2023-04-09T14:19:55.068Z,98241.37
2023-04-09T14:22:23.212Z,98243.07
2023-04-09T14:24:51.664Z,98244.67
2023-04-09T14:27:19.732Z,98244.45
2023-04-09T14:29:48.113Z,98244.05
2023-04-09T14:32:17.302Z,98241.06
2023-04-09T14:34:45.726Z,98241.67
2023-04-09T14:37:14.016Z,98236.38
2023-04-09T14:39:42.165Z,98238.58
2023-04-09T14:42:10.524Z,98237.63
2023-04-09T14:44:39.218Z,98239.80
2023-04-09T14:47:07.406Z,98239.77
2023-04-09T14:49:35.659Z,98237.24
2023-04-09T14:52:03.948Z,98234.17
2023-04-09T14:54:32.224Z,98237.16
2023-04-09T14:57:02.732Z,98235.06
2023-04-09T14:59:31.192Z,98232.42
2023-04-09T15:01:59.719Z,98231.67
2023-04-09T15:04:28.180Z,98231.30
2023-04-09T15:06:56.782Z,98233.61
2023-04-09T15:09:25.087Z,98231.59
2023-04-09T15:11:54.506Z,98230.54
2023-04-09T15:14:23.959Z,98231.02
2023-04-09T15:16:55.898Z,98224.64
2023-04-09T15:19:24.199Z,98226.49
2023-04-09T15:21:52.457Z,98225.73
2023-04-09T15:24:20.647Z,98225.62
2023-04-09T15:26:49.840Z,98223.25
2023-04-09T15:29:18.141Z,98223.97
2023-04-09T15:31:46.405Z,98221.14
2023-04-09T15:34:14.644Z,98224.02
2023-04-09T15:36:42.864Z,98221.33
2023-04-09T15:39:12.312Z,98219.52
2023-04-09T15:41:40.689Z,98220.61
2023-04-09T15:44:08.843Z,98217.99
2023-04-09T15:46:40.071Z,98216.84
2023-04-09T15:49:08.331Z,98213.14
2023-04-09T15:51:36.546Z,98212.06
2023-04-09T15:54:04.803Z,98210.74
2023-04-09T15:56:33.221Z,98210.10
2023-04-09T15:59:05.200Z,98212.63
2023-04-09T16:01:34.352Z,98206.48
2023-04-09T16:04:03.722Z,98206.80
2023-04-09T16:06:32.017Z,98204.83
2023-04-09T16:09:00.225Z,98206.10
2023-04-09T16:11:28.538Z,98205.35
2023-04-09T16:13:57.355Z,98208.21
2023-04-09T16:16:25.556Z,98208.53
2023-04-09T16:18:54.776Z,98201.77
2023-04-09T16:21:23.275Z,98203.85
2023-04-09T16:23:51.791Z,98203.77
2023-04-09T16:26:19.993Z,98203.99
2023-04-09T16:28:50.084Z,98198.45
2023-04-09T16:31:18.511Z,98197.27
2023-04-09T16:33:48.278Z,98198.77
2023-04-09T16:36:16.582Z,98201.67
2023-04-09T16:38:44.820Z,98203.56
2023-04-09T16:41:13.035Z,98203.76
2023-04-09T16:43:41.200Z,98204.01
2023-04-09T16:46:10.887Z,98205.80
2023-04-09T16:48:41.886Z,98208.52
2023-04-09T16:51:10.430Z,98209.53
2023-04-09T16:53:39.029Z,98205.94
2023-04-09T16:56:08.022Z,98206.47
2023-04-09T16:58:36.215Z,98205.98
2023-04-09T17:01:05.485Z,98207.66
2023-04-09T17:03:33.668Z,98210.02
2023-04-09T17:06:02.764Z,98209.68
2023-04-09T17:08:31.024Z,98209.62
2023-04-09T17:11:02.453Z,98211.33
2023-04-09T17:13:33.001Z,98213.40
2023-04-09T17:16:02.764Z,98211.34
2023-04-09T17:18:31.013Z,98214.40
2023-04-09T17:20:59.909Z,98220.92
2023-04-09T17:23:28.135Z,98224.52
2023-04-09T17:25:57.024Z,98227.59
2023-04-09T17:28:25.172Z,98226.36
2023-04-09T17:30:53.382Z,98226.33
2023-04-09T17:33:22.040Z,98228.48
2023-04-09T17:35:50.377Z,98228.13
2023-04-09T17:38:21.504Z,98227.21
2023-04-09T17:40:50.726Z,98234.09
2023-04-09T17:43:19.050Z,98234.41
2023-04-09T17:45:47.105Z,98234.13
2023-04-09T17:48:15.823Z,98234.18
2023-04-09T17:50:43.922Z,98234.60
2023-04-09T17:53:12.119Z,98235.34
2023-04-09T17:55:46.703Z,98234.40
2023-04-09T17:58:15.539Z,98240.66
2023-04-09T18:00:44.390Z,98242.48
2023-04-09T18:03:12.851Z,98244.65
2023-04-09T18:05:41.422Z,98249.75
2023-04-09T18:08:10.174Z,98250.11
2023-04-09T18:10:38.370Z,98252.96
2023-04-09T18:13:06.551Z,98256.30
2023-04-09T18:15:34.846Z,98258.05
2023-04-09T18:18:03.186Z,98260.30
2023-04-09T18:20:31.337Z,98260.06
2023-04-09T18:22:59.483Z,98259.31
2023-04-09T18:25:29.922Z,98262.45
2023-04-09T18:27:58.150Z,98263.77
2023-04-09T18:30:26.494Z,98265.46
2023-04-09T18:32:56.073Z,98267.63
2023-04-09T18:35:25.326Z,98268.58
2023-04-09T18:37:54.616Z,98262.61
2023-04-09T18:40:22.913Z,98266.67
2023-04-09T18:42:54.282Z,98266.94
2023-04-09T18:45:22.768Z,98270.33
2023-04-09T18:47:51.020Z,98266.41
2023-04-09T18:50:19.336Z,98266.94
2023-04-09T18:52:49.574Z,98273.63
2023-04-09T18:55:20.473Z,98271.77
2023-04-09T18:57:48.616Z,98270.42
2023-04-09T19:00:17.765Z,98274.31
2023-04-09T19:02:46.665Z,98273.20
2023-04-09T19:05:14.874Z,98273.98
2023-04-09T19:07:43.522Z,98275.23
2023-04-09T19:10:13.222Z,98275.12
2023-04-09T19:12:49.784Z,98275.31
2023-04-09T19:15:18.016Z,98280.67
2023-04-09T19:17:46.466Z,98282.09
2023-04-09T19:20:18.615Z,98278.90
2023-04-09T19:22:51.041Z,98278.67
2023-04-09T19:25:20.504Z,98279.41
2023-04-09T19:27:58.718Z,98279.16
2023-04-09T19:30:47.170Z,98280.16
2023-04-09T19:33:15.709Z,98280.10
2023-04-09T19:35:54.820Z,98279.13
2023-04-09T19:38:23.556Z,98278.96
2023-04-09T19:40:52.465Z,98279.87
2023-04-09T19:43:21.184Z,98280.20
2023-04-09T19:45:49.588Z,98282.17
2023-04-09T19:48:18.609Z,98284.23
2023-04-09T19:50:48.584Z,98282.94
2023-04-09T19:53:31.259Z,98285.11
2023-04-09T19:56:04.544Z,98288.15
2023-04-09T19:59:50.673Z,98285.45
2023-04-09T20:02:20.486Z,98285.82
2023-04-09T20:04:52.454Z,98283.70
2023-04-09T20:07:22.382Z,98280.20
2023-04-09T20:09:51.769Z,98279.04
2023-04-09T20:12:21.881Z,98282.81
2023-04-09T20:14:58.985Z,98285.15
2023-04-09T20:17:27.377Z,98284.41
2023-04-09T20:19:56.139Z,98282.95
2023-04-09T20:22:24.524Z,98282.85
2023-04-09T20:24:52.804Z,98284.81
2023-04-09T20:27:22.167Z,98289.63
2023-04-09T20:29:50.284Z,98286.47
2023-04-09T20:32:18.812Z,98287.56
2023-04-09T20:34:47.303Z,98288.80
2023-04-09T20:37:15.576Z,98287.88
2023-04-09T20:39:43.772Z,98285.66
2023-04-09T20:42:11.947Z,98286.45
2023-04-09T20:44:40.368Z,98286.95
2023-04-09T20:47:08.438Z,98288.17
2023-04-09T20:49:36.850Z,98287.93
2023-04-09T20:52:04.925Z,98291.52
2023-04-09T20:54:33.100Z,98292.30
2023-04-09T20:57:01.898Z,98294.01
2023-04-09T20:59:30.082Z,98290.94
2023-04-09T21:01:58.474Z,98294.46
2023-04-09T21:04:27.673Z,98296.78
2023-04-09T21:06:56.039Z,98297.96
2023-04-09T21:09:25.240Z,98299.14
2023-04-09T21:11:53.898Z,98298.79
2023-04-09T21:14:22.049Z,98293.19
2023-04-09T21:16:51.954Z,98294.59
2023-04-09T21:19:20.463Z,98298.68
2023-04-09T21:21:48.802Z,98300.41
2023-04-09T21:24:18.454Z,98300.17
2023-04-09T21:26:51.745Z,98301.08
2023-04-09T21:29:26.179Z,98304.11
2023-04-09T21:31:54.682Z,98304.05
2023-04-09T21:34:22.900Z,98302.52
2023-04-09T21:36:51.371Z,98306.16
2023-04-09T21:39:19.709Z,98310.84
2023-04-09T21:41:47.938Z,98310.22
2023-04-09T21:44:16.190Z,98308.05
2023-04-09T21:46:44.353Z,98310.39
2023-04-09T21:49:13.540Z,98311.36
2023-04-09T21:51:41.804Z,98311.14
2023-04-09T21:54:10.357Z,98308.25
2023-04-09T21:56:38.784Z,98304.99
2023-04-09T21:59:07.285Z,98307.19
2023-04-09T22:01:35.664Z,98304.88
2023-04-09T22:04:04.582Z,98307.52
2023-04-09T22:06:33.031Z,98310.06
2023-04-09T22:09:02.140Z,98314.41
2023-04-09T22:11:31.206Z,98317.68
2023-04-09T22:13:59.330Z,98315.44
2023-04-09T22:16:27.862Z,98320.95
2023-04-09T22:18:56.898Z,98318.16
2023-04-09T22:21:31.741Z,98316.60
2023-04-09T22:23:59.923Z,98318.67
2023-04-09T22:26:28.222Z,98318.23
2023-04-09T22:28:56.691Z,98318.29
2023-04-09T22:31:28.563Z,98317.72
2023-04-09T22:34:19.224Z,98313.91
2023-04-09T22:36:50.862Z,98314.94
2023-04-09T22:39:18.934Z,98313.02
2023-04-09T22:41:47.271Z,98312.31
2023-04-09T22:44:15.558Z,98307.58
2023-04-09T22:46:43.829Z,98305.60
2023-04-09T22:49:12.383Z,98301.54
2023-04-09T22:51:41.658Z,98295.47
2023-04-09T22:54:10.528Z,98295.02
2023-04-09T22:56:38.688Z,98290.23
2023-04-09T22:59:06.845Z,98289.63
2023-04-09T23:01:35.233Z,98289.07
2023-04-09T23:04:03.558Z,98288.19
2023-04-09T23:06:32.092Z,98289.88
2023-04-09T23:09:00.577Z,98289.23
2023-04-09T23:11:29.005Z,98289.24
2023-04-09T23:13:57.146Z,98289.45
2023-04-09T23:16:26.455Z,98288.67
2023-04-09T23:18:54.894Z,98288.94
2023-04-09T23:21:23.173Z,98287.36
2023-04-09T23:23:51.463Z,98286.65
2023-04-09T23:26:19.735Z,98283.62
2023-04-09T23:28:47.887Z,98282.84
2023-04-09T23:31:16.345Z,98280.17
2023-04-09T23:33:44.458Z,98283.40
2023-04-09T23:36:12.548Z,98283.77
2023-04-09T23:38:43.637Z,98281.16
2023-04-09T23:41:14.290Z,98279.19
2023-04-09T23:43:46.100Z,98277.65
2023-04-09T23:46:14.302Z,98276.36
2023-04-09T23:48:42.421Z,98273.86
2023-04-09T23:51:17.485Z,98273.71
2023-04-09T23:53:45.845Z,98274.32
2023-04-09T23:56:14.634Z,98270.47
2023-04-09T23:58:43.328Z,98265.80
